sensor_id;sensor_type;location;lat;lon;timestamp;P1;durP1;ratioP1;P2;durP2;ratioP2
35743;SDS011;21867;52.012;4.324;2024-03-29T00:01:32;5.77;;;2.60;;
35743;SDS011;21867;52.012;4.324;2024-03-29T00:03:58;3.80;;;2.33;;
35743;SDS011;21867;52.012;4.324;2024-03-29T00:06:25;3.40;;;1.83;;
35743;SDS011;21867;52.012;4.324;2024-03-29T00:08:51;5.23;;;2.83;;
35743;SDS011;21867;52.012;4.324;2024-03-29T00:11:18;7.93;;;2.23;;
35743;SDS011;21867;52.012;4.324;2024-03-29T00:13:44;3.47;;;2.47;;
35743;SDS011;21867;52.012;4.324;2024-03-29T00:16:12;9.23;;;2.53;;
35743;SDS011;21867;52.012;4.324;2024-03-29T00:18:38;7.00;;;2.63;;
35743;SDS011;21867;52.012;4.324;2024-03-29T00:21:05;6.13;;;2.00;;
35743;SDS011;21867;52.012;4.324;2024-03-29T00:23:31;8.60;;;2.67;;
35743;SDS011;21867;52.012;4.324;2024-03-29T00:25:57;3.57;;;2.30;;
35743;SDS011;21867;52.012;4.324;2024-03-29T00:28:24;5.53;;;2.50;;
35743;SDS011;21867;52.012;4.324;2024-03-29T00:30:50;6.00;;;2.33;;
35743;SDS011;21867;52.012;4.324;2024-03-29T00:33:18;7.20;;;2.10;;
35743;SDS011;21867;52.012;4.324;2024-03-29T00:35:45;4.70;;;2.50;;
35743;SDS011;21867;52.012;4.324;2024-03-29T00:38:11;7.13;;;3.07;;
35743;SDS011;21867;52.012;4.324;2024-03-29T00:40:38;9.67;;;2.57;;
35743;SDS011;21867;52.012;4.324;2024-03-29T00:43:04;4.60;;;2.93;;
35743;SDS011;21867;52.012;4.324;2024-03-29T00:45:31;5.50;;;2.43;;
35743;SDS011;21867;52.012;4.324;2024-03-29T00:47:57;8.93;;;2.90;;
35743;SDS011;21867;52.012;4.324;2024-03-29T00:50:26;8.03;;;2.87;;
35743;SDS011;21867;52.012;4.324;2024-03-29T00:52:58;5.30;;;2.50;;
35743;SDS011;21867;52.012;4.324;2024-03-29T00:55:24;4.77;;;2.00;;
35743;SDS011;21867;52.012;4.324;2024-03-29T00:57:51;9.07;;;3.10;;
35743;SDS011;21867;52.012;4.324;2024-03-29T01:00:17;5.97;;;2.40;;
35743;SDS011;21867;52.012;4.324;2024-03-29T01:02:44;4.23;;;2.20;;
35743;SDS011;21867;52.012;4.324;2024-03-29T01:05:10;6.43;;;2.20;;
35743;SDS011;21867;52.012;4.324;2024-03-29T01:07:38;4.33;;;2.60;;
35743;SDS011;21867;52.012;4.324;2024-03-29T01:10:06;8.30;;;3.20;;
35743;SDS011;21867;52.012;4.324;2024-03-29T01:12:32;7.87;;;3.03;;
35743;SDS011;21867;52.012;4.324;2024-03-29T01:14:59;5.67;;;2.80;;
35743;SDS011;21867;52.012;4.324;2024-03-29T01:17:25;6.13;;;2.20;;
35743;SDS011;21867;52.012;4.324;2024-03-29T01:19:52;4.57;;;2.57;;
35743;SDS011;21867;52.012;4.324;2024-03-29T01:22:19;7.60;;;2.93;;
35743;SDS011;21867;52.012;4.324;2024-03-29T01:24:47;6.03;;;2.43;;
35743;SDS011;21867;52.012;4.324;2024-03-29T01:27:14;4.87;;;2.70;;
35743;SDS011;21867;52.012;4.324;2024-03-29T01:29:40;7.70;;;2.20;;
35743;SDS011;21867;52.012;4.324;2024-03-29T01:32:07;7.73;;;2.90;;
35743;SDS011;21867;52.012;4.324;2024-03-29T01:34:34;6.87;;;2.53;;
35743;SDS011;21867;52.012;4.324;2024-03-29T01:37:00;8.50;;;3.50;;
35743;SDS011;21867;52.012;4.324;2024-03-29T01:39:27;10.23;;;3.27;;
35743;SDS011;21867;52.012;4.324;2024-03-29T01:41:55;7.13;;;2.90;;
35743;SDS011;21867;52.012;4.324;2024-03-29T01:44:21;7.53;;;3.23;;
35743;SDS011;21867;52.012;4.324;2024-03-29T01:46:47;8.40;;;2.83;;
35743;SDS011;21867;52.012;4.324;2024-03-29T01:49:14;9.47;;;2.80;;
35743;SDS011;21867;52.012;4.324;2024-03-29T01:54:31;8.40;;;2.70;;
35743;SDS011;21867;52.012;4.324;2024-03-29T01:57:00;6.73;;;3.10;;
35743;SDS011;21867;52.012;4.324;2024-03-29T01:59:26;7.83;;;2.37;;
35743;SDS011;21867;52.012;4.324;2024-03-29T02:01:54;7.87;;;3.00;;
35743;SDS011;21867;52.012;4.324;2024-03-29T02:04:21;5.30;;;2.23;;
35743;SDS011;21867;52.012;4.324;2024-03-29T02:06:48;8.27;;;3.10;;
35743;SDS011;21867;52.012;4.324;2024-03-29T02:09:15;9.67;;;3.03;;
35743;SDS011;21867;52.012;4.324;2024-03-29T02:11:46;5.87;;;2.33;;
35743;SDS011;21867;52.012;4.324;2024-03-29T02:14:14;4.60;;;2.40;;
35743;SDS011;21867;52.012;4.324;2024-03-29T02:16:41;6.73;;;2.83;;
35743;SDS011;21867;52.012;4.324;2024-03-29T02:19:07;7.23;;;3.00;;
35743;SDS011;21867;52.012;4.324;2024-03-29T02:21:33;4.70;;;2.20;;
35743;SDS011;21867;52.012;4.324;2024-03-29T02:24:06;6.77;;;2.40;;
35743;SDS011;21867;52.012;4.324;2024-03-29T02:26:48;6.03;;;2.73;;
35743;SDS011;21867;52.012;4.324;2024-03-29T02:29:15;6.77;;;2.33;;
35743;SDS011;21867;52.012;4.324;2024-03-29T02:31:41;7.33;;;2.73;;
35743;SDS011;21867;52.012;4.324;2024-03-29T02:34:07;5.03;;;2.27;;
35743;SDS011;21867;52.012;4.324;2024-03-29T02:43:08;7.57;;;2.67;;
35743;SDS011;21867;52.012;4.324;2024-03-29T02:45:35;7.90;;;2.73;;
35743;SDS011;21867;52.012;4.324;2024-03-29T02:48:01;4.60;;;2.30;;
35743;SDS011;21867;52.012;4.324;2024-03-29T02:50:27;3.47;;;2.50;;
35743;SDS011;21867;52.012;4.324;2024-03-29T02:52:54;4.53;;;2.40;;
35743;SDS011;21867;52.012;4.324;2024-03-29T02:55:20;3.13;;;2.73;;
35743;SDS011;21867;52.012;4.324;2024-03-29T02:57:46;8.47;;;3.07;;
35743;SDS011;21867;52.012;4.324;2024-03-29T03:00:15;6.23;;;2.30;;
35743;SDS011;21867;52.012;4.324;2024-03-29T03:02:41;3.93;;;1.93;;
35743;SDS011;21867;52.012;4.324;2024-03-29T03:05:08;5.83;;;2.17;;
35743;SDS011;21867;52.012;4.324;2024-03-29T03:07:34;6.80;;;2.60;;
35743;SDS011;21867;52.012;4.324;2024-03-29T03:10:00;2.60;;;1.97;;
35743;SDS011;21867;52.012;4.324;2024-03-29T03:12:39;5.47;;;2.03;;
35743;SDS011;21867;52.012;4.324;2024-03-29T03:17:55;2.20;;;1.90;;
35743;SDS011;21867;52.012;4.324;2024-03-29T03:20:22;5.07;;;1.90;;
35743;SDS011;21867;52.012;4.324;2024-03-29T03:22:50;10.73;;;3.13;;
35743;SDS011;21867;52.012;4.324;2024-03-29T03:25:17;5.63;;;2.67;;
35743;SDS011;21867;52.012;4.324;2024-03-29T03:27:43;5.13;;;2.17;;
35743;SDS011;21867;52.012;4.324;2024-03-29T03:38:56;3.00;;;1.77;;
35743;SDS011;21867;52.012;4.324;2024-03-29T03:41:27;4.93;;;2.00;;
35743;SDS011;21867;52.012;4.324;2024-03-29T03:44:12;5.37;;;2.30;;
35743;SDS011;21867;52.012;4.324;2024-03-29T03:47:04;3.13;;;2.20;;
35743;SDS011;21867;52.012;4.324;2024-03-29T03:49:30;4.43;;;1.83;;
35743;SDS011;21867;52.012;4.324;2024-03-29T03:51:57;3.10;;;2.23;;
35743;SDS011;21867;52.012;4.324;2024-03-29T03:54:24;2.57;;;1.40;;
35743;SDS011;21867;52.012;4.324;2024-03-29T03:56:51;3.67;;;2.20;;
35743;SDS011;21867;52.012;4.324;2024-03-29T03:59:17;2.33;;;1.97;;
35743;SDS011;21867;52.012;4.324;2024-03-29T04:01:44;2.17;;;1.93;;
35743;SDS011;21867;52.012;4.324;2024-03-29T04:04:10;2.73;;;1.80;;
35743;SDS011;21867;52.012;4.324;2024-03-29T04:06:37;4.00;;;2.00;;
35743;SDS011;21867;52.012;4.324;2024-03-29T04:09:03;2.30;;;2.10;;
35743;SDS011;21867;52.012;4.324;2024-03-29T04:14:28;1.97;;;1.63;;
35743;SDS011;21867;52.012;4.324;2024-03-29T04:16:54;4.73;;;1.80;;
35743;SDS011;21867;52.012;4.324;2024-03-29T04:19:21;2.40;;;1.90;;
35743;SDS011;21867;52.012;4.324;2024-03-29T04:21:47;3.50;;;2.30;;
35743;SDS011;21867;52.012;4.324;2024-03-29T04:24:13;2.60;;;1.50;;
35743;SDS011;21867;52.012;4.324;2024-03-29T04:26:40;1.73;;;1.40;;
35743;SDS011;21867;52.012;4.324;2024-03-29T04:29:06;2.03;;;1.93;;
35743;SDS011;21867;52.012;4.324;2024-03-29T04:31:34;1.67;;;1.57;;
35743;SDS011;21867;52.012;4.324;2024-03-29T04:34:01;3.03;;;2.03;;
35743;SDS011;21867;52.012;4.324;2024-03-29T04:36:27;2.00;;;1.50;;
35743;SDS011;21867;52.012;4.324;2024-03-29T04:38:54;2.93;;;1.90;;
35743;SDS011;21867;52.012;4.324;2024-03-29T04:41:21;1.27;;;1.20;;
35743;SDS011;21867;52.012;4.324;2024-03-29T04:43:47;1.57;;;1.40;;
35743;SDS011;21867;52.012;4.324;2024-03-29T04:46:19;2.77;;;1.50;;
35743;SDS011;21867;52.012;4.324;2024-03-29T04:48:50;3.47;;;1.70;;
35743;SDS011;21867;52.012;4.324;2024-03-29T04:51:16;1.60;;;1.50;;
35743;SDS011;21867;52.012;4.324;2024-03-29T04:53:42;1.43;;;1.23;;
35743;SDS011;21867;52.012;4.324;2024-03-29T04:56:09;1.97;;;1.37;;
35743;SDS011;21867;52.012;4.324;2024-03-29T04:58:35;3.00;;;1.87;;
35743;SDS011;21867;52.012;4.324;2024-03-29T05:01:02;1.67;;;1.57;;
35743;SDS011;21867;52.012;4.324;2024-03-29T05:03:28;2.73;;;1.50;;
35743;SDS011;21867;52.012;4.324;2024-03-29T05:05:56;1.67;;;1.57;;
35743;SDS011;21867;52.012;4.324;2024-03-29T05:08:23;2.23;;;2.03;;
35743;SDS011;21867;52.012;4.324;2024-03-29T05:14:24;1.47;;;1.37;;
35743;SDS011;21867;52.012;4.324;2024-03-29T05:16:51;1.53;;;1.43;;
35743;SDS011;21867;52.012;4.324;2024-03-29T05:19:17;1.83;;;1.73;;
35743;SDS011;21867;52.012;4.324;2024-03-29T05:21:45;2.40;;;1.30;;
35743;SDS011;21867;52.012;4.324;2024-03-29T05:24:12;1.70;;;1.50;;
35743;SDS011;21867;52.012;4.324;2024-03-29T05:26:38;1.87;;;1.60;;
35743;SDS011;21867;52.012;4.324;2024-03-29T05:29:05;2.60;;;1.67;;
35743;SDS011;21867;52.012;4.324;2024-03-29T05:31:31;1.40;;;1.40;;
35743;SDS011;21867;52.012;4.324;2024-03-29T05:33:57;2.00;;;1.10;;
35743;SDS011;21867;52.012;4.324;2024-03-29T05:36:24;1.87;;;1.60;;
35743;SDS011;21867;52.012;4.324;2024-03-29T05:38:52;2.43;;;1.50;;
35743;SDS011;21867;52.012;4.324;2024-03-29T05:41:30;1.60;;;1.37;;
35743;SDS011;21867;52.012;4.324;2024-03-29T05:44:09;1.67;;;1.57;;
35743;SDS011;21867;52.012;4.324;2024-03-29T05:46:35;3.57;;;1.37;;
35743;SDS011;21867;52.012;4.324;2024-03-29T05:49:02;2.83;;;1.80;;
35743;SDS011;21867;52.012;4.324;2024-03-29T05:51:28;1.90;;;1.70;;
35743;SDS011;21867;52.012;4.324;2024-03-29T05:53:56;1.90;;;1.80;;
35743;SDS011;21867;52.012;4.324;2024-03-29T05:56:22;2.33;;;2.03;;
35743;SDS011;21867;52.012;4.324;2024-03-29T05:58:49;2.53;;;1.90;;
35743;SDS011;21867;52.012;4.324;2024-03-29T06:01:15;2.40;;;2.30;;
35743;SDS011;21867;52.012;4.324;2024-03-29T06:03:41;5.87;;;2.40;;
35743;SDS011;21867;52.012;4.324;2024-03-29T06:06:08;3.43;;;1.90;;
35743;SDS011;21867;52.012;4.324;2024-03-29T06:08:34;5.50;;;2.50;;
35743;SDS011;21867;52.012;4.324;2024-03-29T06:17:23;2.10;;;2.00;;
35743;SDS011;21867;52.012;4.324;2024-03-29T06:19:50;2.97;;;1.90;;
35743;SDS011;21867;52.012;4.324;2024-03-29T06:22:16;1.67;;;1.57;;
35743;SDS011;21867;52.012;4.324;2024-03-29T06:24:43;2.13;;;1.80;;
35743;SDS011;21867;52.012;4.324;2024-03-29T06:27:09;2.53;;;2.10;;
35743;SDS011;21867;52.012;4.324;2024-03-29T06:57:47;2.90;;;1.80;;
35743;SDS011;21867;52.012;4.324;2024-03-29T07:00:19;2.10;;;1.90;;
35743;SDS011;21867;52.012;4.324;2024-03-29T07:02:46;2.30;;;1.70;;
35743;SDS011;21867;52.012;4.324;2024-03-29T07:05:12;2.00;;;1.83;;
35743;SDS011;21867;52.012;4.324;2024-03-29T07:07:39;2.53;;;2.20;;
35743;SDS011;21867;52.012;4.324;2024-03-29T07:10:10;2.27;;;2.17;;
35743;SDS011;21867;52.012;4.324;2024-03-29T07:12:44;5.07;;;2.33;;
35743;SDS011;21867;52.012;4.324;2024-03-29T07:15:12;2.70;;;2.07;;
35743;SDS011;21867;52.012;4.324;2024-03-29T07:17:38;2.50;;;2.00;;
35743;SDS011;21867;52.012;4.324;2024-03-29T07:20:05;2.23;;;2.07;;
35743;SDS011;21867;52.012;4.324;2024-03-29T07:22:32;7.27;;;2.10;;
35743;SDS011;21867;52.012;4.324;2024-03-29T07:24:58;2.17;;;2.07;;
35743;SDS011;21867;52.012;4.324;2024-03-29T07:27:24;2.33;;;2.17;;
35743;SDS011;21867;52.012;4.324;2024-03-29T07:29:51;2.23;;;1.73;;
35743;SDS011;21867;52.012;4.324;2024-03-29T07:32:18;2.20;;;2.00;;
35743;SDS011;21867;52.012;4.324;2024-03-29T07:34:45;2.10;;;1.90;;
35743;SDS011;21867;52.012;4.324;2024-03-29T07:37:11;1.77;;;1.67;;
35743;SDS011;21867;52.012;4.324;2024-03-29T07:39:38;4.30;;;2.20;;
35743;SDS011;21867;52.012;4.324;2024-03-29T07:42:04;2.23;;;1.90;;
35743;SDS011;21867;52.012;4.324;2024-03-29T07:44:30;2.50;;;1.80;;
35743;SDS011;21867;52.012;4.324;2024-03-29T07:46:57;2.10;;;2.00;;
35743;SDS011;21867;52.012;4.324;2024-03-29T07:49:25;2.10;;;1.90;;
35743;SDS011;21867;52.012;4.324;2024-03-29T07:51:51;1.97;;;1.87;;
35743;SDS011;21867;52.012;4.324;2024-03-29T07:54:17;1.70;;;1.60;;
35743;SDS011;21867;52.012;4.324;2024-03-29T07:56:44;2.83;;;2.17;;
35743;SDS011;21867;52.012;4.324;2024-03-29T07:59:10;3.80;;;2.40;;
35743;SDS011;21867;52.012;4.324;2024-03-29T08:01:37;3.20;;;2.33;;
35743;SDS011;21867;52.012;4.324;2024-03-29T08:04:03;2.17;;;1.97;;
35743;SDS011;21867;52.012;4.324;2024-03-29T08:06:31;2.90;;;1.90;;
35743;SDS011;21867;52.012;4.324;2024-03-29T08:08:57;2.80;;;1.83;;
35743;SDS011;21867;52.012;4.324;2024-03-29T08:11:24;3.40;;;2.00;;
35743;SDS011;21867;52.012;4.324;2024-03-29T08:13:50;3.30;;;2.47;;
35743;SDS011;21867;52.012;4.324;2024-03-29T08:16:17;2.87;;;2.37;;
35743;SDS011;21867;52.012;4.324;2024-03-29T08:18:45;2.23;;;2.13;;
35743;SDS011;21867;52.012;4.324;2024-03-29T08:21:11;3.53;;;2.53;;
35743;SDS011;21867;52.012;4.324;2024-03-29T08:23:40;4.80;;;2.70;;
35743;SDS011;21867;52.012;4.324;2024-03-29T08:26:06;4.97;;;2.43;;
35743;SDS011;21867;52.012;4.324;2024-03-29T08:28:33;4.03;;;2.23;;
35743;SDS011;21867;52.012;4.324;2024-03-29T08:30:59;4.00;;;2.50;;
35743;SDS011;21867;52.012;4.324;2024-03-29T08:33:26;2.30;;;2.03;;
35743;SDS011;21867;52.012;4.324;2024-03-29T08:35:53;3.00;;;2.43;;
35743;SDS011;21867;52.012;4.324;2024-03-29T08:38:19;3.03;;;2.60;;
35743;SDS011;21867;52.012;4.324;2024-03-29T08:40:47;3.93;;;2.43;;
35743;SDS011;21867;52.012;4.324;2024-03-29T08:43:13;3.97;;;2.30;;
35743;SDS011;21867;52.012;4.324;2024-03-29T08:45:40;2.60;;;2.40;;
35743;SDS011;21867;52.012;4.324;2024-03-29T08:48:06;4.23;;;2.50;;
35743;SDS011;21867;52.012;4.324;2024-03-29T08:50:32;2.53;;;2.33;;
35743;SDS011;21867;52.012;4.324;2024-03-29T08:52:59;2.43;;;2.23;;
35743;SDS011;21867;52.012;4.324;2024-03-29T08:55:25;2.07;;;1.87;;
35743;SDS011;21867;52.012;4.324;2024-03-29T08:57:53;2.37;;;2.10;;
35743;SDS011;21867;52.012;4.324;2024-03-29T09:00:19;3.10;;;1.80;;
35743;SDS011;21867;52.012;4.324;2024-03-29T09:02:46;2.70;;;1.90;;
35743;SDS011;21867;52.012;4.324;2024-03-29T09:05:12;2.30;;;2.10;;
35743;SDS011;21867;52.012;4.324;2024-03-29T09:07:39;2.57;;;1.90;;
35743;SDS011;21867;52.012;4.324;2024-03-29T09:10:06;2.97;;;1.93;;
35743;SDS011;21867;52.012;4.324;2024-03-29T09:12:32;2.80;;;2.00;;
35743;SDS011;21867;52.012;4.324;2024-03-29T09:15:00;1.80;;;1.70;;
35743;SDS011;21867;52.012;4.324;2024-03-29T09:17:26;1.57;;;1.47;;
35743;SDS011;21867;52.012;4.324;2024-03-29T09:19:53;1.90;;;1.80;;
35743;SDS011;21867;52.012;4.324;2024-03-29T09:22:19;1.30;;;1.30;;
35743;SDS011;21867;52.012;4.324;2024-03-29T09:24:46;2.07;;;1.80;;
35743;SDS011;21867;52.012;4.324;2024-03-29T09:27:12;2.73;;;1.67;;
35743;SDS011;21867;52.012;4.324;2024-03-29T09:29:39;2.47;;;1.90;;
35743;SDS011;21867;52.012;4.324;2024-03-29T09:32:06;1.87;;;1.63;;
35743;SDS011;21867;52.012;4.324;2024-03-29T09:34:33;1.90;;;1.80;;
35743;SDS011;21867;52.012;4.324;2024-03-29T09:36:59;1.90;;;1.80;;
35743;SDS011;21867;52.012;4.324;2024-03-29T09:39:26;2.83;;;1.90;;
35743;SDS011;21867;52.012;4.324;2024-03-29T09:41:52;2.13;;;1.83;;
35743;SDS011;21867;52.012;4.324;2024-03-29T09:44:22;3.83;;;2.33;;
35743;SDS011;21867;52.012;4.324;2024-03-29T09:46:49;2.10;;;1.90;;
35743;SDS011;21867;52.012;4.324;2024-03-29T09:49:18;2.60;;;2.40;;
35743;SDS011;21867;52.012;4.324;2024-03-29T09:51:44;2.97;;;2.20;;
35743;SDS011;21867;52.012;4.324;2024-03-29T09:54:11;3.23;;;2.27;;
35743;SDS011;21867;52.012;4.324;2024-03-29T09:56:37;2.40;;;1.77;;
35743;SDS011;21867;52.012;4.324;2024-03-29T09:59:04;2.23;;;2.03;;
35743;SDS011;21867;52.012;4.324;2024-03-29T10:01:30;2.17;;;1.93;;
35743;SDS011;21867;52.012;4.324;2024-03-29T10:03:57;1.97;;;1.87;;
35743;SDS011;21867;52.012;4.324;2024-03-29T10:06:26;2.67;;;1.97;;
35743;SDS011;21867;52.012;4.324;2024-03-29T10:08:55;2.70;;;2.50;;
35743;SDS011;21867;52.012;4.324;2024-03-29T10:11:22;4.60;;;2.70;;
35743;SDS011;21867;52.012;4.324;2024-03-29T10:13:58;3.93;;;2.43;;
35743;SDS011;21867;52.012;4.324;2024-03-29T10:16:25;3.10;;;2.63;;
35743;SDS011;21867;52.012;4.324;2024-03-29T10:18:51;3.13;;;2.93;;
35743;SDS011;21867;52.012;4.324;2024-03-29T10:21:24;3.40;;;3.10;;
35743;SDS011;21867;52.012;4.324;2024-03-29T10:23:52;3.20;;;2.40;;
35743;SDS011;21867;52.012;4.324;2024-03-29T10:26:18;3.10;;;2.90;;
35743;SDS011;21867;52.012;4.324;2024-03-29T10:28:46;2.73;;;2.37;;
35743;SDS011;21867;52.012;4.324;2024-03-29T10:31:12;4.13;;;2.73;;
35743;SDS011;21867;52.012;4.324;2024-03-29T10:33:39;3.80;;;2.90;;
35743;SDS011;21867;52.012;4.324;2024-03-29T10:36:08;3.40;;;2.70;;
35743;SDS011;21867;52.012;4.324;2024-03-29T10:38:34;2.83;;;2.17;;
35743;SDS011;21867;52.012;4.324;2024-03-29T10:41:02;2.77;;;2.57;;
35743;SDS011;21867;52.012;4.324;2024-03-29T10:43:29;3.20;;;2.40;;
35743;SDS011;21867;52.012;4.324;2024-03-29T10:45:55;4.17;;;3.10;;
35743;SDS011;21867;52.012;4.324;2024-03-29T10:48:22;4.80;;;2.00;;
35743;SDS011;21867;52.012;4.324;2024-03-29T10:50:49;4.40;;;2.43;;
35743;SDS011;21867;52.012;4.324;2024-03-29T10:53:15;5.03;;;2.70;;
35743;SDS011;21867;52.012;4.324;2024-03-29T10:55:42;2.53;;;2.33;;
35743;SDS011;21867;52.012;4.324;2024-03-29T10:58:10;2.60;;;2.40;;
35743;SDS011;21867;52.012;4.324;2024-03-29T11:00:37;3.13;;;2.57;;
35743;SDS011;21867;52.012;4.324;2024-03-29T11:03:06;6.00;;;3.23;;
35743;SDS011;21867;52.012;4.324;2024-03-29T11:05:35;4.03;;;3.23;;
35743;SDS011;21867;52.012;4.324;2024-03-29T11:08:01;3.03;;;2.73;;
35743;SDS011;21867;52.012;4.324;2024-03-29T11:10:29;5.20;;;3.03;;
35743;SDS011;21867;52.012;4.324;2024-03-29T11:12:58;3.10;;;2.80;;
35743;SDS011;21867;52.012;4.324;2024-03-29T11:15:29;3.30;;;2.50;;
35743;SDS011;21867;52.012;4.324;2024-03-29T11:17:55;3.53;;;3.23;;
35743;SDS011;21867;52.012;4.324;2024-03-29T11:20:23;2.93;;;2.67;;
35743;SDS011;21867;52.012;4.324;2024-03-29T11:22:50;2.50;;;2.30;;
35743;SDS011;21867;52.012;4.324;2024-03-29T11:25:17;3.07;;;2.73;;
35743;SDS011;21867;52.012;4.324;2024-03-29T11:27:43;3.97;;;3.37;;
35743;SDS011;21867;52.012;4.324;2024-03-29T11:30:10;3.60;;;2.90;;
35743;SDS011;21867;52.012;4.324;2024-03-29T11:35:21;4.80;;;2.73;;
35743;SDS011;21867;52.012;4.324;2024-03-29T11:37:55;3.93;;;3.50;;
35743;SDS011;21867;52.012;4.324;2024-03-29T11:40:22;3.10;;;2.90;;
35743;SDS011;21867;52.012;4.324;2024-03-29T11:42:49;3.23;;;2.63;;
35743;SDS011;21867;52.012;4.324;2024-03-29T11:45:23;3.97;;;3.07;;
35743;SDS011;21867;52.012;4.324;2024-03-29T11:47:52;3.50;;;3.20;;
35743;SDS011;21867;52.012;4.324;2024-03-29T11:50:20;3.37;;;3.10;;
35743;SDS011;21867;52.012;4.324;2024-03-29T11:52:47;3.57;;;3.27;;
35743;SDS011;21867;52.012;4.324;2024-03-29T11:55:13;2.30;;;2.10;;
35743;SDS011;21867;52.012;4.324;2024-03-29T11:57:39;4.23;;;2.40;;
35743;SDS011;21867;52.012;4.324;2024-03-29T12:00:09;2.47;;;2.27;;
35743;SDS011;21867;52.012;4.324;2024-03-29T12:02:36;2.57;;;2.37;;
35743;SDS011;21867;52.012;4.324;2024-03-29T12:05:05;3.27;;;2.97;;
35743;SDS011;21867;52.012;4.324;2024-03-29T12:07:33;3.30;;;2.90;;
35743;SDS011;21867;52.012;4.324;2024-03-29T12:13:15;4.47;;;2.33;;
35743;SDS011;21867;52.012;4.324;2024-03-29T12:15:42;5.33;;;2.47;;
35743;SDS011;21867;52.012;4.324;2024-03-29T12:18:09;3.13;;;2.80;;
35743;SDS011;21867;52.012;4.324;2024-03-29T12:20:36;3.87;;;2.40;;
35743;SDS011;21867;52.012;4.324;2024-03-29T12:23:04;3.40;;;2.43;;
35743;SDS011;21867;52.012;4.324;2024-03-29T12:25:32;4.43;;;2.63;;
35743;SDS011;21867;52.012;4.324;2024-03-29T12:27:59;3.47;;;2.20;;
35743;SDS011;21867;52.012;4.324;2024-03-29T12:30:26;3.50;;;2.10;;
35743;SDS011;21867;52.012;4.324;2024-03-29T12:32:59;3.10;;;2.50;;
35743;SDS011;21867;52.012;4.324;2024-03-29T12:35:26;4.67;;;2.57;;
35743;SDS011;21867;52.012;4.324;2024-03-29T12:37:53;2.40;;;2.20;;
35743;SDS011;21867;52.012;4.324;2024-03-29T12:40:21;5.73;;;2.57;;
35743;SDS011;21867;52.012;4.324;2024-03-29T12:42:56;2.20;;;2.00;;
35743;SDS011;21867;52.012;4.324;2024-03-29T12:45:23;3.10;;;2.57;;
35743;SDS011;21867;52.012;4.324;2024-03-29T12:47:50;4.20;;;2.27;;
35743;SDS011;21867;52.012;4.324;2024-03-29T12:50:19;7.23;;;2.70;;
35743;SDS011;21867;52.012;4.324;2024-03-29T12:52:47;4.07;;;2.27;;
35743;SDS011;21867;52.012;4.324;2024-03-29T12:58:51;3.90;;;2.30;;
35743;SDS011;21867;52.012;4.324;2024-03-29T13:01:17;3.73;;;2.50;;
35743;SDS011;21867;52.012;4.324;2024-03-29T13:03:44;3.33;;;2.40;;
35743;SDS011;21867;52.012;4.324;2024-03-29T13:06:10;2.63;;;1.97;;
35743;SDS011;21867;52.012;4.324;2024-03-29T13:08:37;4.80;;;2.30;;
35743;SDS011;21867;52.012;4.324;2024-03-29T13:11:03;5.57;;;2.40;;
35743;SDS011;21867;52.012;4.324;2024-03-29T13:13:30;3.13;;;2.60;;
35743;SDS011;21867;52.012;4.324;2024-03-29T13:15:58;3.17;;;2.50;;
35743;SDS011;21867;52.012;4.324;2024-03-29T13:18:25;2.77;;;2.30;;
35743;SDS011;21867;52.012;4.324;2024-03-29T13:20:51;2.87;;;2.53;;
35743;SDS011;21867;52.012;4.324;2024-03-29T13:23:23;6.03;;;2.60;;
35743;SDS011;21867;52.012;4.324;2024-03-29T13:28:41;4.33;;;2.40;;
35743;SDS011;21867;52.012;4.324;2024-03-29T13:31:09;2.93;;;2.40;;
35743;SDS011;21867;52.012;4.324;2024-03-29T13:33:36;3.93;;;2.53;;
35743;SDS011;21867;52.012;4.324;2024-03-29T13:36:03;3.30;;;2.27;;
35743;SDS011;21867;52.012;4.324;2024-03-29T13:38:29;2.40;;;2.20;;
35743;SDS011;21867;52.012;4.324;2024-03-29T13:40:56;2.57;;;2.30;;
35743;SDS011;21867;52.012;4.324;2024-03-29T13:43:23;4.37;;;2.70;;
35743;SDS011;21867;52.012;4.324;2024-03-29T13:45:49;2.20;;;2.00;;
35743;SDS011;21867;52.012;4.324;2024-03-29T13:48:17;5.50;;;1.93;;
35743;SDS011;21867;52.012;4.324;2024-03-29T13:50:43;2.43;;;2.17;;
35743;SDS011;21867;52.012;4.324;2024-03-29T13:53:10;3.67;;;2.73;;
35743;SDS011;21867;52.012;4.324;2024-03-29T13:55:36;4.10;;;2.30;;
35743;SDS011;21867;52.012;4.324;2024-03-29T13:58:03;2.93;;;2.20;;
35743;SDS011;21867;52.012;4.324;2024-03-29T14:00:30;3.13;;;2.30;;
35743;SDS011;21867;52.012;4.324;2024-03-29T14:03:02;5.43;;;1.90;;
35743;SDS011;21867;52.012;4.324;2024-03-29T14:05:31;3.23;;;2.40;;
35743;SDS011;21867;52.012;4.324;2024-03-29T14:07:57;3.07;;;2.17;;
35743;SDS011;21867;52.012;4.324;2024-03-29T14:10:24;3.27;;;2.77;;
35743;SDS011;21867;52.012;4.324;2024-03-29T14:12:51;2.87;;;2.67;;
35743;SDS011;21867;52.012;4.324;2024-03-29T14:15:17;3.80;;;2.80;;
35743;SDS011;21867;52.012;4.324;2024-03-29T14:17:45;3.73;;;2.83;;
35743;SDS011;21867;52.012;4.324;2024-03-29T14:20:11;3.93;;;2.40;;
35743;SDS011;21867;52.012;4.324;2024-03-29T14:22:39;5.77;;;2.47;;
35743;SDS011;21867;52.012;4.324;2024-03-29T14:25:06;2.70;;;2.27;;
35743;SDS011;21867;52.012;4.324;2024-03-29T14:27:33;4.07;;;2.40;;
35743;SDS011;21867;52.012;4.324;2024-03-29T14:29:59;8.63;;;2.60;;
35743;SDS011;21867;52.012;4.324;2024-03-29T14:32:26;2.50;;;2.30;;
35743;SDS011;21867;52.012;4.324;2024-03-29T14:34:52;3.97;;;2.30;;
35743;SDS011;21867;52.012;4.324;2024-03-29T14:37:18;4.93;;;2.53;;
35743;SDS011;21867;52.012;4.324;2024-03-29T14:39:46;2.67;;;2.50;;
35743;SDS011;21867;52.012;4.324;2024-03-29T14:42:13;4.70;;;2.17;;
35743;SDS011;21867;52.012;4.324;2024-03-29T14:44:39;2.27;;;2.07;;
35743;SDS011;21867;52.012;4.324;2024-03-29T14:47:05;2.50;;;1.90;;
35743;SDS011;21867;52.012;4.324;2024-03-29T14:49:32;2.63;;;1.90;;
35743;SDS011;21867;52.012;4.324;2024-03-29T14:51:58;2.37;;;1.40;;
35743;SDS011;21867;52.012;4.324;2024-03-29T14:54:25;2.17;;;1.90;;
35743;SDS011;21867;52.012;4.324;2024-03-29T14:56:53;3.07;;;2.00;;
35743;SDS011;21867;52.012;4.324;2024-03-29T14:59:19;3.53;;;1.90;;
35743;SDS011;21867;52.012;4.324;2024-03-29T15:01:46;2.20;;;1.97;;
35743;SDS011;21867;52.012;4.324;2024-03-29T15:04:12;6.43;;;2.20;;
35743;SDS011;21867;52.012;4.324;2024-03-29T15:06:39;4.63;;;2.03;;
35743;SDS011;21867;52.012;4.324;2024-03-29T15:09:05;2.30;;;1.97;;
35743;SDS011;21867;52.012;4.324;2024-03-29T15:11:31;2.63;;;2.10;;
35743;SDS011;21867;52.012;4.324;2024-03-29T15:14:00;1.87;;;1.67;;
35743;SDS011;21867;52.012;4.324;2024-03-29T15:16:26;3.70;;;1.73;;
35743;SDS011;21867;52.012;4.324;2024-03-29T15:18:53;2.47;;;1.80;;
35743;SDS011;21867;52.012;4.324;2024-03-29T15:21:19;3.30;;;1.97;;
35743;SDS011;21867;52.012;4.324;2024-03-29T15:23:46;3.30;;;2.20;;
35743;SDS011;21867;52.012;4.324;2024-03-29T15:26:12;2.63;;;1.90;;
35743;SDS011;21867;52.012;4.324;2024-03-29T15:28:39;1.83;;;1.73;;
35743;SDS011;21867;52.012;4.324;2024-03-29T15:31:10;2.50;;;2.30;;
35743;SDS011;21867;52.012;4.324;2024-03-29T15:33:37;4.53;;;2.03;;
35743;SDS011;21867;52.012;4.324;2024-03-29T15:36:05;1.90;;;1.80;;
35743;SDS011;21867;52.012;4.324;2024-03-29T15:38:31;1.63;;;1.47;;
35743;SDS011;21867;52.012;4.324;2024-03-29T15:41:05;1.90;;;1.80;;
35743;SDS011;21867;52.012;4.324;2024-03-29T15:43:32;3.23;;;1.93;;
35743;SDS011;21867;52.012;4.324;2024-03-29T15:45:58;2.57;;;2.13;;
35743;SDS011;21867;52.012;4.324;2024-03-29T15:51:24;1.97;;;1.80;;
35743;SDS011;21867;52.012;4.324;2024-03-29T15:53:51;2.23;;;2.00;;
35743;SDS011;21867;52.012;4.324;2024-03-29T15:56:18;2.00;;;1.80;;
35743;SDS011;21867;52.012;4.324;2024-03-29T15:58:44;2.93;;;1.87;;
35743;SDS011;21867;52.012;4.324;2024-03-29T16:01:15;1.60;;;1.50;;
35743;SDS011;21867;52.012;4.324;2024-03-29T16:03:42;3.93;;;2.17;;
35743;SDS011;21867;52.012;4.324;2024-03-29T16:06:08;2.70;;;1.80;;